Time;durP1;ratioP1;P1;durP2;ratioP2;P2;SDS_P1;SDS_P2;PMS_P1;PMS_P2;Temp;Humidity;BMP_temperature;BMP_pressure;BME280_temperature;BME280_humidity;BME280_pressure;Samples;Min_cycle;Max_cycle;Signal;HPM_P1;HPM_P2
2022/03/05 00:00:11;;;;;;;16.40;11.27;;;;;;;;;;5001901;28;20231;-74
2022/03/05 00:02:38;;;;;;;16.73;11.20;;;;;;;;;;4998205;28;20218;-75
2022/03/05 00:05:07;;;;;;;14.53;9.90;;;;;;;;;;5012559;28;20218;-74
2022/03/05 00:07:35;;;;;;;14.87;10.63;;;;;;;;;;5003938;28;20270;-74
2022/03/05 00:10:02;;;;;;;20.13;10.93;;;;;;;;;;4994918;28;20282;-74
2022/03/05 00:12:30;;;;;;;15.53;10.63;;;;;;;;;;4998515;28;20231;-74
2022/03/05 00:14:57;;;;;;;15.83;10.77;;;;;;;;;;5003746;28;20212;-74
2022/03/05 00:17:24;;;;;;;18.53;11.13;;;;;;;;;;4994419;28;20239;-74
2022/03/05 00:19:51;;;;;;;17.93;10.33;;;;;;;;;;4997578;28;20213;-74
2022/03/05 00:22:20;;;;;;;16.00;10.53;;;;;;;;;;5011187;28;20238;-74
2022/03/05 00:24:47;;;;;;;14.20;10.07;;;;;;;;;;5000978;28;20223;-74
2022/03/05 00:27:14;;;;;;;16.07;10.97;;;;;;;;;;4996979;28;20268;-75
2022/03/05 00:29:42;;;;;;;15.03;10.63;;;;;;;;;;4998351;28;20301;-74
2022/03/05 00:32:09;;;;;;;12.80;9.57;;;;;;;;;;4994720;28;20318;-75
2022/03/05 00:34:36;;;;;;;15.20;10.30;;;;;;;;;;5003081;28;20198;-75
2022/03/05 00:37:05;;;;;;;15.50;10.17;;;;;;;;;;5012753;28;20206;-75
2022/03/05 00:39:33;;;;;;;13.47;9.90;;;;;;;;;;5007558;28;20210;-74
2022/03/05 00:42:01;;;;;;;17.37;10.60;;;;;;;;;;5013831;28;20313;-74
2022/03/05 00:44:28;;;;;;;15.07;10.33;;;;;;;;;;5002150;28;20338;-74
2022/03/05 00:46:55;;;;;;;16.40;10.40;;;;;;;;;;5010598;28;20214;-75
2022/03/05 00:49:22;;;;;;;15.53;10.40;;;;;;;;;;5002417;28;20299;-75
2022/03/05 00:51:50;;;;;;;14.53;10.20;;;;;;;;;;5013223;28;20226;-75
2022/03/05 00:54:17;;;;;;;16.80;10.37;;;;;;;;;;4998411;28;20211;-75
2022/03/05 00:56:46;;;;;;;17.47;10.43;;;;;;;;;;4993218;28;20210;-75
2022/03/05 00:59:13;;;;;;;14.83;10.17;;;;;;;;;;4996857;28;20203;-74
2022/03/05 01:01:41;;;;;;;15.83;10.53;;;;;;;;;;5000389;28;20227;-75
2022/03/05 01:04:08;;;;;;;14.33;10.23;;;;;;;;;;4993848;28;20295;-74
2022/03/05 01:06:36;;;;;;;14.87;10.43;;;;;;;;;;4993079;28;20733;-73
2022/03/05 01:09:04;;;;;;;16.63;11.00;;;;;;;;;;5000086;28;20213;-74
2022/03/05 01:11:32;;;;;;;15.10;10.33;;;;;;;;;;4993603;28;20238;-75
2022/03/05 01:14:03;;;;;;;16.63;10.70;;;;;;;;;;5007995;28;20206;-75
2022/03/05 01:16:31;;;;;;;13.77;10.17;;;;;;;;;;5011621;28;20206;-74
2022/03/05 01:18:58;;;;;;;14.20;10.20;;;;;;;;;;4994453;28;20214;-75
2022/03/05 01:21:25;;;;;;;14.73;10.37;;;;;;;;;;5010667;28;20252;-75
2022/03/05 01:23:53;;;;;;;15.23;10.77;;;;;;;;;;4998502;28;20262;-75
2022/03/05 01:26:20;;;;;;;14.83;10.60;;;;;;;;;;4993513;28;20231;-75
2022/03/05 01:28:47;;;;;;;18.30;11.10;;;;;;;;;;4992824;28;20207;-75
2022/03/05 01:31:16;;;;;;;14.07;10.53;;;;;;;;;;5022800;23;20241;-76
2022/03/05 01:33:44;;;;;;;17.17;10.83;;;;;;;;;;5023912;28;20285;-77
2022/03/05 01:36:11;;;;;;;18.30;12.30;;;;;;;;;;5013020;28;20230;-76
2022/03/05 01:38:38;;;;;;;14.80;10.43;;;;;;;;;;5020947;28;20305;-76
2022/03/05 01:41:05;;;;;;;16.77;11.13;;;;;;;;;;5025211;28;20223;-76
2022/03/05 01:43:33;;;;;;;18.20;11.30;;;;;;;;;;5027264;28;20230;-75
2022/03/05 01:46:00;;;;;;;14.13;9.97;;;;;;;;;;5024438;28;20313;-77
2022/03/05 01:48:29;;;;;;;15.53;11.20;;;;;;;;;;5015666;28;20210;-76
2022/03/05 01:50:57;;;;;;;15.80;11.00;;;;;;;;;;5014048;28;20263;-76
2022/03/05 01:53:24;;;;;;;17.93;10.83;;;;;;;;;;5013717;28;20269;-76
2022/03/05 01:55:52;;;;;;;16.13;11.23;;;;;;;;;;5017855;28;20225;-76
2022/03/05 01:58:19;;;;;;;18.40;11.33;;;;;;;;;;5026050;28;20236;-76
2022/03/05 02:00:46;;;;;;;17.37;11.17;;;;;;;;;;5032243;28;20213;-76
2022/03/05 02:03:13;;;;;;;16.77;11.37;;;;;;;;;;5030396;28;20208;-76
2022/03/05 02:05:42;;;;;;;14.83;10.73;;;;;;;;;;5018553;28;20305;-76
2022/03/05 02:08:09;;;;;;;15.20;10.93;;;;;;;;;;5012167;28;20293;-76
2022/03/05 02:10:37;;;;;;;16.10;10.97;;;;;;;;;;5012997;28;20289;-76
2022/03/05 02:13:04;;;;;;;15.73;10.30;;;;;;;;;;5017754;28;20281;-76
2022/03/05 02:15:33;;;;;;;15.33;11.07;;;;;;;;;;5017721;28;20194;-76
2022/03/05 02:18:00;;;;;;;14.83;10.47;;;;;;;;;;5019125;28;20210;-76
2022/03/05 02:20:30;;;;;;;17.33;11.50;;;;;;;;;;5043757;28;20246;-76
2022/03/05 02:22:57;;;;;;;15.23;10.43;;;;;;;;;;5038106;28;20293;-76
2022/03/05 02:25:25;;;;;;;15.03;10.43;;;;;;;;;;5033992;28;20225;-76
2022/03/05 02:27:52;;;;;;;15.50;10.47;;;;;;;;;;5020352;28;20241;-76
2022/03/05 02:30:19;;;;;;;17.37;9.90;;;;;;;;;;5021111;28;20237;-76
2022/03/05 02:32:46;;;;;;;15.43;10.83;;;;;;;;;;5014214;28;20265;-76
2022/03/05 02:35:14;;;;;;;17.13;10.93;;;;;;;;;;5018805;28;20209;-76
2022/03/05 02:37:42;;;;;;;17.20;11.30;;;;;;;;;;5013803;28;20202;-76
2022/03/05 02:40:10;;;;;;;16.63;11.27;;;;;;;;;;5026776;28;20206;-76
2022/03/05 02:42:37;;;;;;;14.77;10.70;;;;;;;;;;5031746;28;20290;-76
2022/03/05 02:45:05;;;;;;;17.90;10.60;;;;;;;;;;5026708;28;20252;-76
2022/03/05 02:47:32;;;;;;;14.33;10.80;;;;;;;;;;5025139;28;20213;-76
2022/03/05 02:49:59;;;;;;;15.67;10.70;;;;;;;;;;5019582;28;20210;-76
2022/03/05 02:52:26;;;;;;;14.40;10.43;;;;;;;;;;5017623;28;20230;-76
2022/03/05 02:54:55;;;;;;;13.63;10.30;;;;;;;;;;5012618;28;20211;-76
2022/03/05 02:57:22;;;;;;;18.17;11.37;;;;;;;;;;5012394;28;20210;-77
2022/03/05 02:59:50;;;;;;;16.73;10.23;;;;;;;;;;5024430;28;20237;-75
2022/03/05 03:02:17;;;;;;;14.83;10.40;;;;;;;;;;5013372;28;20253;-76
2022/03/05 03:04:44;;;;;;;16.23;10.87;;;;;;;;;;5013761;28;20207;-76
2022/03/05 03:07:12;;;;;;;21.20;10.87;;;;;;;;;;5012945;28;20298;-76
2022/03/05 03:09:39;;;;;;;13.20;10.03;;;;;;;;;;5021719;28;20229;-76
2022/03/05 03:12:08;;;;;;;15.33;10.13;;;;;;;;;;5027937;28;20313;-75
2022/03/05 03:14:36;;;;;;;17.20;10.70;;;;;;;;;;5032789;28;20212;-75
2022/03/05 03:17:03;;;;;;;15.90;10.97;;;;;;;;;;5016847;28;20293;-75
2022/03/05 03:19:30;;;;;;;16.50;11.30;;;;;;;;;;5032138;28;20301;-76
2022/03/05 03:21:57;;;;;;;14.33;9.80;;;;;;;;;;5033054;28;20313;-76
2022/03/05 03:24:25;;;;;;;20.97;10.80;;;;;;;;;;5017318;28;20313;-75
2022/03/05 03:26:52;;;;;;;15.50;10.40;;;;;;;;;;5033525;28;20312;-75
2022/03/05 03:29:20;;;;;;;21.97;11.13;;;;;;;;;;5035442;28;20288;-76
2022/03/05 03:31:48;;;;;;;18.30;10.70;;;;;;;;;;5022164;28;20240;-76
2022/03/05 03:34:15;;;;;;;16.47;10.83;;;;;;;;;;5016447;28;20210;-76
2022/03/05 03:36:42;;;;;;;18.00;11.17;;;;;;;;;;5022497;28;20212;-75
2022/03/05 03:39:09;;;;;;;16.30;11.03;;;;;;;;;;5015906;28;20206;-75
2022/03/05 03:41:36;;;;;;;16.17;10.57;;;;;;;;;;5021207;28;20257;-76
2022/03/05 03:44:04;;;;;;;16.80;11.50;;;;;;;;;;5017358;28;20297;-76
2022/03/05 03:46:32;;;;;;;16.47;11.07;;;;;;;;;;5021184;28;20246;-76
2022/03/05 03:49:00;;;;;;;16.17;10.27;;;;;;;;;;5033461;28;20290;-76
2022/03/05 03:51:27;;;;;;;16.43;10.73;;;;;;;;;;5023225;28;20225;-76
2022/03/05 03:53:54;;;;;;;17.27;10.27;;;;;;;;;;5022671;28;20237;-75
2022/03/05 03:56:21;;;;;;;15.37;10.93;;;;;;;;;;5030257;28;20288;-77
2022/03/05 03:58:49;;;;;;;15.60;10.97;;;;;;;;;;5035118;28;20289;-75
2022/03/05 04:01:16;;;;;;;16.17;10.77;;;;;;;;;;5025098;28;20226;-75
2022/03/05 04:03:44;;;;;;;16.00;10.10;;;;;;;;;;5015896;28;20213;-77
2022/03/05 04:06:12;;;;;;;14.30;10.10;;;;;;;;;;5020105;28;20250;-75
2022/03/05 04:08:44;;;;;;;16.43;10.63;;;;;;;;;;5021929;28;20207;-75
2022/03/05 04:11:11;;;;;;;14.50;9.90;;;;;;;;;;5027196;28;20210;-75
2022/03/05 04:13:39;;;;;;;19.60;11.10;;;;;;;;;;5025034;28;20214;-75
2022/03/05 04:16:06;;;;;;;15.20;10.20;;;;;;;;;;5015824;28;20210;-75
2022/03/05 04:18:33;;;;;;;16.23;10.70;;;;;;;;;;5019095;28;20517;-75
2022/03/05 04:21:04;;;;;;;17.40;10.67;;;;;;;;;;5035162;28;20220;-76
2022/03/05 04:23:31;;;;;;;16.23;11.30;;;;;;;;;;5028956;28;20210;-75
2022/03/05 04:25:58;;;;;;;17.57;10.90;;;;;;;;;;5025412;28;20222;-78
2022/03/05 04:28:26;;;;;;;16.23;10.80;;;;;;;;;;5023143;28;20202;-76
2022/03/05 04:30:53;;;;;;;17.77;11.27;;;;;;;;;;5031369;28;20329;-75
2022/03/05 04:33:20;;;;;;;15.43;10.67;;;;;;;;;;5013718;28;20212;-75
2022/03/05 04:35:47;;;;;;;16.50;10.37;;;;;;;;;;5015496;28;20285;-75
2022/03/05 04:38:16;;;;;;;16.27;10.70;;;;;;;;;;5014749;28;20237;-76
2022/03/05 04:40:43;;;;;;;15.20;10.60;;;;;;;;;;5031476;28;20206;-76
2022/03/05 04:43:10;;;;;;;16.27;10.90;;;;;;;;;;5033926;28;20278;-76
2022/03/05 04:45:38;;;;;;;17.70;10.23;;;;;;;;;;5024398;28;20221;-76
2022/03/05 04:48:05;;;;;;;15.07;10.37;;;;;;;;;;5033584;28;20210;-76
2022/03/05 04:50:33;;;;;;;16.77;10.63;;;;;;;;;;5028429;28;20296;-76
2022/03/05 04:53:00;;;;;;;16.43;10.47;;;;;;;;;;5014811;28;20222;-76
2022/03/05 04:55:29;;;;;;;13.80;9.60;;;;;;;;;;5030334;28;20212;-76
2022/03/05 04:57:56;;;;;;;16.87;10.97;;;;;;;;;;5033813;28;20281;-76
2022/03/05 05:00:23;;;;;;;15.30;10.23;;;;;;;;;;5025024;28;20242;-76
2022/03/05 05:02:50;;;;;;;15.33;10.37;;;;;;;;;;5014144;28;20431;-76
2022/03/05 05:05:18;;;;;;;17.60;11.17;;;;;;;;;;5014506;28;20289;-76
2022/03/05 05:07:45;;;;;;;15.27;10.27;;;;;;;;;;5018188;28;20225;-76
2022/03/05 05:10:12;;;;;;;17.37;11.40;;;;;;;;;;5018315;28;20687;-76
2022/03/05 05:12:41;;;;;;;16.80;10.50;;;;;;;;;;5017262;28;20349;-76
2022/03/05 05:15:08;;;;;;;16.67;11.03;;;;;;;;;;5025295;28;20301;-76
2022/03/05 05:17:36;;;;;;;17.77;11.07;;;;;;;;;;5015867;28;20257;-76
2022/03/05 05:20:04;;;;;;;13.43;9.77;;;;;;;;;;5015175;28;20202;-76
2022/03/05 05:22:32;;;;;;;16.47;10.17;;;;;;;;;;5013845;28;20233;-75
2022/03/05 05:24:59;;;;;;;15.53;10.37;;;;;;;;;;5013939;28;20274;-76
2022/03/05 05:27:27;;;;;;;14.23;10.17;;;;;;;;;;5014871;28;20219;-76
2022/03/05 05:29:56;;;;;;;14.23;10.30;;;;;;;;;;5014429;28;20214;-76
2022/03/05 05:32:23;;;;;;;14.50;10.50;;;;;;;;;;5020467;28;20317;-75
2022/03/05 05:34:53;;;;;;;14.27;9.93;;;;;;;;;;5023661;28;20199;-77
2022/03/05 05:37:20;;;;;;;15.50;9.70;;;;;;;;;;5024600;28;20204;-76
2022/03/05 05:39:47;;;;;;;17.57;10.17;;;;;;;;;;5012833;28;20654;-76
2022/03/05 05:42:15;;;;;;;16.37;10.17;;;;;;;;;;5012503;28;20218;-76
2022/03/05 05:44:42;;;;;;;17.67;10.73;;;;;;;;;;5012325;28;20285;-76
2022/03/05 05:47:11;;;;;;;17.97;10.17;;;;;;;;;;5011771;28;20223;-76
2022/03/05 05:49:38;;;;;;;14.40;9.83;;;;;;;;;;5013165;28;20210;-76
2022/03/05 05:52:06;;;;;;;15.57;10.50;;;;;;;;;;5020713;28;20217;-76
2022/03/05 05:54:33;;;;;;;16.50;10.37;;;;;;;;;;5018234;28;20256;-76
2022/03/05 05:57:00;;;;;;;16.90;10.27;;;;;;;;;;5024463;28;20226;-76
2022/03/05 05:59:28;;;;;;;17.00;9.77;;;;;;;;;;5031711;28;20208;-76
2022/03/05 06:01:55;;;;;;;16.63;10.10;;;;;;;;;;5025519;28;20317;-76
2022/03/05 06:04:23;;;;;;;17.67;11.00;;;;;;;;;;5032104;28;20292;-77
2022/03/05 06:06:51;;;;;;;17.17;9.57;;;;;;;;;;5025784;28;20305;-76
2022/03/05 06:09:18;;;;;;;19.10;11.30;;;;;;;;;;5032411;28;20292;-76
2022/03/05 06:11:46;;;;;;;18.40;11.10;;;;;;;;;;5028957;28;20249;-81
2022/03/05 06:14:15;;;;;;;16.77;10.93;;;;;;;;;;5028955;28;20201;-82
2022/03/05 06:16:43;;;;;;;17.80;11.17;;;;;;;;;;5023345;28;20576;-76
2022/03/05 06:19:10;;;;;;;14.80;9.83;;;;;;;;;;5018524;28;20199;-76
2022/03/05 06:21:39;;;;;;;14.87;10.53;;;;;;;;;;5029310;28;20218;-76
2022/03/05 06:24:07;;;;;;;15.97;9.73;;;;;;;;;;5020490;28;20261;-76
2022/03/05 06:26:35;;;;;;;20.10;10.50;;;;;;;;;;5018750;28;20218;-76
2022/03/05 06:29:02;;;;;;;17.33;10.37;;;;;;;;;;5027387;28;20208;-76
2022/03/05 06:31:29;;;;;;;16.40;10.23;;;;;;;;;;5025250;28;20297;-76
2022/03/05 06:33:56;;;;;;;16.27;10.07;;;;;;;;;;5024582;28;20266;-77
2022/03/05 06:36:23;;;;;;;17.83;10.90;;;;;;;;;;5018678;28;20237;-76
2022/03/05 06:38:52;;;;;;;16.77;11.03;;;;;;;;;;5017766;28;20202;-76
2022/03/05 06:41:19;;;;;;;16.43;10.23;;;;;;;;;;5035436;28;20304;-78
2022/03/05 06:43:47;;;;;;;16.23;11.03;;;;;;;;;;5028904;28;20198;-75
2022/03/05 06:46:14;;;;;;;16.53;10.97;;;;;;;;;;5019282;28;20208;-74
2022/03/05 06:48:41;;;;;;;17.47;10.77;;;;;;;;;;5021832;28;20421;-74
2022/03/05 06:51:08;;;;;;;17.63;11.53;;;;;;;;;;5015340;28;20229;-74
2022/03/05 06:53:35;;;;;;;16.93;11.50;;;;;;;;;;5022653;28;20204;-75
2022/03/05 06:56:04;;;;;;;18.53;11.23;;;;;;;;;;5019123;28;20293;-75
2022/03/05 06:58:31;;;;;;;21.60;11.13;;;;;;;;;;5025341;28;20323;-75
2022/03/05 07:00:59;;;;;;;19.73;12.13;;;;;;;;;;5019631;28;20234;-74
2022/03/05 07:03:26;;;;;;;18.03;11.13;;;;;;;;;;5015303;28;20244;-74
2022/03/05 07:05:53;;;;;;;20.70;11.33;;;;;;;;;;5019305;28;20297;-76
2022/03/05 07:08:20;;;;;;;18.30;11.10;;;;;;;;;;5031852;28;20328;-74
2022/03/05 07:10:48;;;;;;;22.43;11.10;;;;;;;;;;5021522;28;20217;-74
2022/03/05 07:13:16;;;;;;;20.73;12.00;;;;;;;;;;5023593;28;20309;-74
2022/03/05 07:15:44;;;;;;;15.57;10.40;;;;;;;;;;5028467;28;20210;-76
2022/03/05 07:18:11;;;;;;;15.27;10.63;;;;;;;;;;5017054;28;20205;-74
2022/03/05 07:20:39;;;;;;;15.13;11.33;;;;;;;;;;5024443;28;20206;-75
2022/03/05 07:23:06;;;;;;;16.53;11.10;;;;;;;;;;5023158;28;20205;-74
2022/03/05 07:25:39;;;;;;;16.87;11.20;;;;;;;;;;5021733;28;20292;-76
2022/03/05 07:28:06;;;;;;;15.43;11.07;;;;;;;;;;5017783;28;20225;-74
2022/03/05 07:30:35;;;;;;;15.37;10.77;;;;;;;;;;5015431;28;20293;-74
2022/03/05 07:33:03;;;;;;;16.37;11.03;;;;;;;;;;5017165;28;20195;-74
2022/03/05 07:35:30;;;;;;;15.27;11.00;;;;;;;;;;5034098;28;20206;-74
2022/03/05 07:37:57;;;;;;;16.07;11.10;;;;;;;;;;5028058;28;20252;-74
2022/03/05 07:40:25;;;;;;;14.67;10.83;;;;;;;;;;5027947;28;20220;-74
2022/03/05 07:42:52;;;;;;;16.80;10.60;;;;;;;;;;5032985;28;20217;-75
2022/03/05 07:45:19;;;;;;;14.97;10.67;;;;;;;;;;5015600;28;20666;-75
2022/03/05 07:47:48;;;;;;;14.77;10.83;;;;;;;;;;5024304;28;20213;-75
2022/03/05 07:50:15;;;;;;;17.13;11.03;;;;;;;;;;5015065;28;20210;-75
2022/03/05 07:52:42;;;;;;;14.57;11.20;;;;;;;;;;5016137;28;20230;-75
2022/03/05 07:55:10;;;;;;;17.53;11.70;;;;;;;;;;5018910;28;20194;-77
2022/03/05 07:57:37;;;;;;;18.57;12.17;;;;;;;;;;5025271;28;20255;-76
2022/03/05 08:00:05;;;;;;;16.70;11.70;;;;;;;;;;5020219;28;20205;-76
2022/03/05 08:02:33;;;;;;;19.23;12.00;;;;;;;;;;5027396;28;20231;-80
2022/03/05 08:05:01;;;;;;;17.53;11.77;;;;;;;;;;5019329;28;20200;-76
2022/03/05 08:07:29;;;;;;;19.07;11.40;;;;;;;;;;5025836;28;20317;-76
2022/03/05 08:09:56;;;;;;;16.23;11.53;;;;;;;;;;5029070;28;20206;-76
2022/03/05 08:12:23;;;;;;;28.00;17.17;;;;;;;;;;5019738;28;20260;-76
2022/03/05 08:14:50;;;;;;;20.03;14.83;;;;;;;;;;5024761;28;20222;-78
2022/03/05 08:17:18;;;;;;;21.03;14.00;;;;;;;;;;5024990;28;20285;-75
2022/03/05 08:19:45;;;;;;;18.50;12.70;;;;;;;;;;5023545;28;20210;-77
2022/03/05 08:22:13;;;;;;;20.27;13.23;;;;;;;;;;5024494;28;20295;-76
2022/03/05 08:24:41;;;;;;;19.13;12.73;;;;;;;;;;5020648;28;20211;-78
2022/03/05 08:27:08;;;;;;;21.47;13.27;;;;;;;;;;5025440;28;20305;-78
2022/03/05 08:29:35;;;;;;;20.40;13.13;;;;;;;;;;5025027;28;20206;-81
2022/03/05 08:32:05;;;;;;;18.30;12.43;;;;;;;;;;5024266;28;20246;-78
2022/03/05 08:34:32;;;;;;;18.70;13.10;;;;;;;;;;5024153;28;20316;-75
2022/03/05 08:37:00;;;;;;;19.37;12.83;;;;;;;;;;5021738;28;20205;-76
2022/03/05 08:39:28;;;;;;;18.43;12.77;;;;;;;;;;5022014;28;20207;-75
2022/03/05 08:41:56;;;;;;;18.50;12.67;;;;;;;;;;5022050;28;20223;-75
2022/03/05 08:44:23;;;;;;;17.87;12.90;;;;;;;;;;5021754;28;20206;-75
2022/03/05 08:46:50;;;;;;;18.63;13.00;;;;;;;;;;5018560;28;20203;-75
2022/03/05 08:49:17;;;;;;;19.47;13.03;;;;;;;;;;5026334;28;20297;-75
2022/03/05 08:51:44;;;;;;;16.10;12.10;;;;;;;;;;5023839;28;20312;-74
2022/03/05 08:54:11;;;;;;;89.17;33.53;;;;;;;;;;5021370;28;20669;-74
2022/03/05 08:56:40;;;;;;;18.53;12.93;;;;;;;;;;5017045;28;20206;-74
2022/03/05 08:59:07;;;;;;;20.60;13.50;;;;;;;;;;5023594;28;20301;-80
2022/03/05 09:01:34;;;;;;;18.80;13.13;;;;;;;;;;5018498;28;20309;-74
2022/03/05 09:04:01;;;;;;;20.37;13.63;;;;;;;;;;5016929;28;20209;-74
2022/03/05 09:06:29;;;;;;;18.73;13.27;;;;;;;;;;5020205;28;20213;-74
2022/03/05 09:08:56;;;;;;;21.07;14.60;;;;;;;;;;5023990;28;20230;-75
2022/03/05 09:11:24;;;;;;;16.57;12.53;;;;;;;;;;5013742;28;20233;-78
2022/03/05 09:13:52;;;;;;;21.97;15.03;;;;;;;;;;5013901;28;20204;-74
2022/03/05 09:16:20;;;;;;;28.03;21.30;;;;;;;;;;5018398;28;20207;-78
2022/03/05 09:18:47;;;;;;;17.97;12.70;;;;;;;;;;5019447;28;20222;-79
2022/03/05 09:21:14;;;;;;;17.43;12.97;;;;;;;;;;5022532;28;20229;-81
2022/03/05 09:23:42;;;;;;;14.97;11.87;;;;;;;;;;5022620;28;20210;-80
2022/03/05 09:26:09;;;;;;;17.97;11.93;;;;;;;;;;5029154;28;20203;-78
2022/03/05 09:28:37;;;;;;;16.20;11.70;;;;;;;;;;5018489;28;20304;-77
2022/03/05 09:31:06;;;;;;;17.13;11.90;;;;;;;;;;5021370;28;20249;-77
2022/03/05 09:33:33;;;;;;;15.43;10.80;;;;;;;;;;5027001;28;20212;-78
2022/03/05 09:36:00;;;;;;;15.03;11.33;;;;;;;;;;5024648;28;20206;-78
2022/03/05 09:38:27;;;;;;;13.40;10.97;;;;;;;;;;5025027;28;20290;-76
2022/03/05 09:40:55;;;;;;;15.80;10.73;;;;;;;;;;5029562;28;20222;-78
2022/03/05 09:43:23;;;;;;;16.67;11.00;;;;;;;;;;5028651;28;20290;-80
2022/03/05 09:45:50;;;;;;;15.03;10.70;;;;;;;;;;5022082;28;20299;-80
2022/03/05 09:48:19;;;;;;;15.00;10.67;;;;;;;;;;5017864;28;20317;-77
2022/03/05 09:50:47;;;;;;;15.47;10.73;;;;;;;;;;5024689;28;20289;-77
2022/03/05 09:53:14;;;;;;;15.30;10.93;;;;;;;;;;5028900;28;20273;-79
2022/03/05 09:55:41;;;;;;;15.50;10.63;;;;;;;;;;5025645;28;20201;-78
2022/03/05 09:58:09;;;;;;;13.93;10.40;;;;;;;;;;5028268;28;20241;-77
2022/03/05 10:00:36;;;;;;;13.97;10.60;;;;;;;;;;5031239;28;20222;-82
2022/03/05 10:03:06;;;;;;;15.73;11.13;;;;;;;;;;5022299;28;20213;-78
2022/03/05 10:05:36;;;;;;;13.97;10.67;;;;;;;;;;5027370;28;20270;-79
2022/03/05 10:08:12;;;;;;;13.03;9.47;;;;;;;;;;5018324;28;20224;-78
2022/03/05 10:10:47;;;;;;;14.37;9.73;;;;;;;;;;5030760;28;20220;-77
2022/03/05 10:13:18;;;;;;;12.33;9.20;;;;;;;;;;5025236;28;20676;-79
2022/03/05 10:15:46;;;;;;;12.57;9.13;;;;;;;;;;5019841;28;20264;-79
2022/03/05 10:18:13;;;;;;;12.40;9.70;;;;;;;;;;5016378;28;20199;-82
2022/03/05 10:20:45;;;;;;;13.37;10.07;;;;;;;;;;5016515;28;20236;-80
2022/03/05 10:23:13;;;;;;;14.47;9.77;;;;;;;;;;5023311;28;20280;-76
2022/03/05 10:25:41;;;;;;;11.67;8.87;;;;;;;;;;5022207;28;20241;-76
2022/03/05 10:28:13;;;;;;;12.93;9.93;;;;;;;;;;5016794;28;20248;-81
2022/03/05 10:30:41;;;;;;;12.30;9.43;;;;;;;;;;5017865;28;20233;-82
2022/03/05 10:33:10;;;;;;;14.33;10.20;;;;;;;;;;5029265;28;20210;-82
2022/03/05 10:35:39;;;;;;;10.90;9.30;;;;;;;;;;5029948;28;20206;-79
2022/03/05 10:38:08;;;;;;;15.60;10.47;;;;;;;;;;5026601;28;20208;-79
2022/03/05 10:40:49;;;;;;;10.30;8.30;;;;;;;;;;5026033;28;20225;-80
2022/03/05 10:43:25;;;;;;;11.17;8.30;;;;;;;;;;5029539;28;20194;-81
2022/03/05 10:49:09;;;;;;;11.30;8.20;;;;;;;;;;4964145;28;20232;-79
2022/03/05 10:51:39;;;;;;;12.80;9.63;;;;;;;;;;5020220;28;20217;-78
2022/03/05 10:54:13;;;;;;;12.33;8.80;;;;;;;;;;5022316;28;20200;-79
2022/03/05 10:56:55;;;;;;;8.10;7.23;;;;;;;;;;5020669;28;20205;-80
2022/03/05 10:59:22;;;;;;;10.53;7.70;;;;;;;;;;5022187;28;20206;-75
2022/03/05 11:01:50;;;;;;;9.57;7.57;;;;;;;;;;5020405;28;20252;-75
2022/03/05 11:04:17;;;;;;;9.97;8.37;;;;;;;;;;5019115;28;20194;-75
2022/03/05 11:06:45;;;;;;;10.67;8.23;;;;;;;;;;5017598;28;20297;-76
2022/03/05 11:09:14;;;;;;;10.17;7.90;;;;;;;;;;5015529;28;20749;-76
2022/03/05 11:11:42;;;;;;;9.10;7.97;;;;;;;;;;5028197;28;20308;-80
2022/03/05 11:14:12;;;;;;;13.53;9.80;;;;;;;;;;5024265;28;20212;-80
2022/03/05 11:16:39;;;;;;;26.73;14.10;;;;;;;;;;5025256;28;20202;-82
2022/03/05 11:19:06;;;;;;;10.70;8.23;;;;;;;;;;5019316;28;20209;-80
2022/03/05 11:21:34;;;;;;;10.83;8.27;;;;;;;;;;5017635;28;20222;-80
2022/03/05 11:24:01;;;;;;;11.10;8.37;;;;;;;;;;5021070;28;20213;-80
2022/03/05 11:26:31;;;;;;;11.70;8.67;;;;;;;;;;5023103;28;20243;-80
2022/03/05 11:28:59;;;;;;;10.57;8.57;;;;;;;;;;5022280;28;20229;-80
2022/03/05 11:31:31;;;;;;;12.00;9.07;;;;;;;;;;5015716;28;20234;-80
2022/03/05 11:34:12;;;;;;;10.87;8.63;;;;;;;;;;5027151;28;20248;-81
2022/03/05 11:36:39;;;;;;;12.17;9.47;;;;;;;;;;5029324;28;20210;-81
2022/03/05 11:39:21;;;;;;;10.60;9.33;;;;;;;;;;5025957;28;20204;-78
2022/03/05 11:41:51;;;;;;;11.23;8.77;;;;;;;;;;5010122;28;20249;-77
2022/03/05 11:44:19;;;;;;;11.00;9.50;;;;;;;;;;5013663;28;20229;-77
2022/03/05 11:46:47;;;;;;;12.60;9.37;;;;;;;;;;5012977;28;20257;-78
2022/03/05 11:49:15;;;;;;;11.60;9.07;;;;;;;;;;5013477;28;20242;-77
2022/03/05 11:51:55;;;;;;;9.87;7.93;;;;;;;;;;5015277;28;20223;-81
2022/03/05 11:54:22;;;;;;;8.97;7.80;;;;;;;;;;5015781;28;20218;-77
2022/03/05 11:57:08;;;;;;;10.47;8.33;;;;;;;;;;5017344;28;20684;-78
2022/03/05 11:59:36;;;;;;;10.33;8.63;;;;;;;;;;5017470;28;20198;-78
2022/03/05 12:02:06;;;;;;;10.50;9.00;;;;;;;;;;5015358;28;20316;-78
2022/03/05 12:04:34;;;;;;;11.73;9.97;;;;;;;;;;5015263;28;20210;-77
2022/03/05 12:07:02;;;;;;;10.23;9.10;;;;;;;;;;5017137;28;20206;-78
2022/03/05 12:09:40;;;;;;;12.07;8.30;;;;;;;;;;5015565;28;20362;-78
2022/03/05 12:12:10;;;;;;;9.90;8.30;;;;;;;;;;5019126;28;20317;-81
2022/03/05 12:14:56;;;;;;;9.17;8.07;;;;;;;;;;5015748;28;20203;-77
2022/03/05 12:17:26;;;;;;;9.90;8.30;;;;;;;;;;5024182;28;20215;-79
2022/03/05 12:20:02;;;;;;;10.50;8.60;;;;;;;;;;5022718;28;20280;-80
2022/03/05 12:22:30;;;;;;;10.87;8.47;;;;;;;;;;5026676;28;20308;-77
2022/03/05 12:24:57;;;;;;;11.00;8.70;;;;;;;;;;5016418;28;20210;-74
2022/03/05 12:27:29;;;;;;;10.67;8.57;;;;;;;;;;5021436;28;20289;-74
2022/03/05 12:29:57;;;;;;;11.17;9.07;;;;;;;;;;5020991;28;20313;-74
2022/03/05 12:32:30;;;;;;;9.93;8.37;;;;;;;;;;5018492;28;20230;-77
2022/03/05 12:35:02;;;;;;;9.87;8.13;;;;;;;;;;5013051;28;20203;-77
2022/03/05 12:37:31;;;;;;;9.77;8.00;;;;;;;;;;5018983;28;20668;-76
2022/03/05 12:39:58;;;;;;;10.00;8.30;;;;;;;;;;5021087;28;20194;-76
2022/03/05 12:42:34;;;;;;;9.23;7.93;;;;;;;;;;5013774;28;20256;-78
2022/03/05 12:45:02;;;;;;;11.90;8.60;;;;;;;;;;5022107;28;20214;-83
2022/03/05 12:47:32;;;;;;;10.23;8.53;;;;;;;;;;5019324;28;20202;-74
2022/03/05 12:49:59;;;;;;;10.43;7.80;;;;;;;;;;5016383;28;20223;-76
2022/03/05 12:52:26;;;;;;;9.33;7.47;;;;;;;;;;5014732;28;20286;-77
2022/03/05 12:54:54;;;;;;;7.83;6.77;;;;;;;;;;5019147;28;20203;-76
2022/03/05 12:57:22;;;;;;;7.70;6.90;;;;;;;;;;5013964;28;20215;-76
2022/03/05 12:59:50;;;;;;;7.50;6.43;;;;;;;;;;5018984;28;20201;-76
2022/03/05 13:02:18;;;;;;;7.53;6.73;;;;;;;;;;5014778;28;20236;-76
2022/03/05 13:04:48;;;;;;;9.20;6.80;;;;;;;;;;5013170;28;20304;-76
2022/03/05 13:07:15;;;;;;;6.77;6.00;;;;;;;;;;5020614;28;20210;-76
2022/03/05 13:09:43;;;;;;;7.57;6.60;;;;;;;;;;5031914;28;20222;-76
2022/03/05 13:12:11;;;;;;;6.43;5.70;;;;;;;;;;5024114;28;20310;-76
2022/03/05 13:14:38;;;;;;;8.53;6.37;;;;;;;;;;5020560;28;20210;-76
2022/03/05 13:17:07;;;;;;;7.83;6.30;;;;;;;;;;5017428;28;20245;-76
2022/03/05 13:19:34;;;;;;;7.40;6.53;;;;;;;;;;5015247;28;20294;-76
2022/03/05 13:22:01;;;;;;;8.13;6.60;;;;;;;;;;5017582;28;20317;-76
2022/03/05 13:24:28;;;;;;;7.50;6.20;;;;;;;;;;5016511;28;20297;-77
2022/03/05 13:26:56;;;;;;;8.67;6.87;;;;;;;;;;5014980;28;20215;-77
2022/03/05 13:29:23;;;;;;;7.53;6.30;;;;;;;;;;5012446;28;20222;-76
2022/03/05 13:31:59;;;;;;;8.43;6.67;;;;;;;;;;5030755;23;20222;-76
2022/03/05 13:34:28;;;;;;;8.87;7.93;;;;;;;;;;5019365;28;20562;-77
2022/03/05 13:36:57;;;;;;;8.87;6.90;;;;;;;;;;5018080;28;20228;-78
2022/03/05 13:39:25;;;;;;;9.87;7.77;;;;;;;;;;5022760;28;20207;-77
2022/03/05 13:41:53;;;;;;;8.63;7.23;;;;;;;;;;5014270;28;20278;-77
2022/03/05 13:44:21;;;;;;;9.03;7.00;;;;;;;;;;5009746;28;20262;-78
2022/03/05 13:46:49;;;;;;;8.00;6.83;;;;;;;;;;5001326;28;20202;-78
2022/03/05 13:49:17;;;;;;;8.90;7.33;;;;;;;;;;5001208;28;20258;-76
2022/03/05 13:51:48;;;;;;;8.60;7.33;;;;;;;;;;4995866;28;20245;-76
2022/03/05 13:54:15;;;;;;;8.33;7.43;;;;;;;;;;5003381;28;20293;-79
2022/03/05 13:56:47;;;;;;;8.80;7.57;;;;;;;;;;5002337;28;20209;-81
2022/03/05 13:59:18;;;;;;;7.97;7.17;;;;;;;;;;5004272;28;20245;-78
2022/03/05 14:01:46;;;;;;;8.93;7.50;;;;;;;;;;5002071;28;20223;-77
2022/03/05 14:04:14;;;;;;;9.27;7.40;;;;;;;;;;5007792;28;20195;-80
2022/03/05 14:06:48;;;;;;;9.70;7.80;;;;;;;;;;5003792;28;20203;-75
2022/03/05 14:09:20;;;;;;;8.80;7.20;;;;;;;;;;5001875;28;20260;-77
2022/03/05 14:11:47;;;;;;;8.43;6.87;;;;;;;;;;5000712;28;20230;-75
2022/03/05 14:14:20;;;;;;;8.10;7.20;;;;;;;;;;5001298;28;20238;-75
2022/03/05 14:16:56;;;;;;;9.47;7.50;;;;;;;;;;4999397;28;20233;-77
2022/03/05 14:19:29;;;;;;;8.40;7.23;;;;;;;;;;5008006;28;20198;-76
2022/03/05 14:22:08;;;;;;;8.67;7.17;;;;;;;;;;5008395;28;20261;-76
2022/03/05 14:24:36;;;;;;;9.23;7.27;;;;;;;;;;5009599;28;20199;-81
2022/03/05 14:27:13;;;;;;;10.00;7.60;;;;;;;;;;5015665;28;20257;-74
2022/03/05 14:29:41;;;;;;;9.67;7.67;;;;;;;;;;5011760;28;20241;-75
2022/03/05 14:32:11;;;;;;;8.27;7.13;;;;;;;;;;5013539;28;20237;-78